createdAt,value
2019-03-08T00:01:09.071Z,95483.76
2019-03-08T00:03:38.851Z,95492.52
2019-03-08T00:06:08.472Z,95480.69
2019-03-08T00:08:38.181Z,95477.78
2019-03-08T00:11:07.791Z,95485.20
2019-03-08T00:13:37.499Z,95475.23
2019-03-08T00:16:07.200Z,95483.05
2019-03-08T00:18:36.825Z,95479.41
2019-03-08T00:21:06.521Z,95477.48
2019-03-08T00:23:36.592Z,95473.47
2019-03-08T00:26:06.250Z,95475.14
2019-03-08T00:28:35.873Z,95469.27
2019-03-08T00:31:05.577Z,95472.56
2019-03-08T00:33:35.186Z,95471.03
2019-03-08T00:36:04.886Z,95472.98
2019-03-08T00:38:34.512Z,95484.09
2019-03-08T00:41:04.214Z,95486.05
2019-03-08T00:43:33.915Z,95481.31
2019-03-08T00:46:03.636Z,95491.41
2019-03-08T00:48:33.333Z,95493.14
2019-03-08T00:51:03.169Z,95488.63
2019-03-08T00:53:32.868Z,95485.53
2019-03-08T00:56:02.502Z,95488.63
2019-03-08T00:58:32.180Z,95493.07
2019-03-08T01:01:01.814Z,95491.64
2019-03-08T01:03:31.499Z,95487.09
2019-03-08T01:06:01.217Z,95480.92
2019-03-08T01:08:30.841Z,95485.86
2019-03-08T01:11:00.542Z,95480.89
2019-03-08T01:13:30.164Z,95489.97
2019-03-08T01:15:59.904Z,95482.52
2019-03-08T01:18:29.688Z,95480.75
2019-03-08T01:20:59.382Z,95479.55
2019-03-08T01:23:29.020Z,95479.36
2019-03-08T01:25:58.697Z,95475.66
2019-03-08T01:28:28.555Z,95479.68
2019-03-08T01:30:58.335Z,95482.36
2019-03-08T01:33:28.038Z,95475.77
2019-03-08T01:35:57.739Z,95478.73
2019-03-08T01:38:27.459Z,95456.30
2019-03-08T01:40:57.086Z,95460.94
2019-03-08T01:43:26.775Z,95471.33
2019-03-08T01:45:56.495Z,95472.66
2019-03-08T01:48:26.348Z,95464.11
2019-03-08T01:50:55.940Z,95464.11
2019-03-08T01:53:25.610Z,95466.30
2019-03-08T01:55:55.247Z,95464.11
2019-03-08T01:58:25.245Z,95463.62
2019-03-08T02:00:54.875Z,95468.74
2019-03-08T02:03:24.567Z,95478.25
2019-03-08T02:05:54.196Z,95482.55
2019-03-08T02:08:23.791Z,95477.73
2019-03-08T02:10:53.495Z,95473.70
2019-03-08T02:13:23.122Z,95478.02
2019-03-08T02:15:52.815Z,95485.86
2019-03-08T02:18:22.435Z,95477.73
2019-03-08T02:20:52.349Z,95490.39
2019-03-08T02:23:22.053Z,95479.84
2019-03-08T02:25:51.968Z,95486.77
2019-03-08T02:28:21.670Z,95480.08
2019-03-08T02:30:51.394Z,95491.80
2019-03-08T02:33:21.108Z,95482.75
2019-03-08T02:35:50.724Z,95489.97
2019-03-08T02:38:20.415Z,95482.03
2019-03-08T02:40:50.040Z,95487.88
2019-03-08T02:43:19.976Z,95484.19
2019-03-08T02:45:49.559Z,95476.15
2019-03-08T02:48:19.261Z,95492.94
2019-03-08T02:50:48.878Z,95494.57
2019-03-08T02:53:18.781Z,95485.95
2019-03-08T02:55:48.424Z,95491.41
2019-03-08T02:58:18.101Z,95500.16
2019-03-08T03:00:48.250Z,95495.09
2019-03-08T03:03:18.571Z,95499.11
2019-03-08T03:05:48.462Z,95498.59
2019-03-08T03:08:18.084Z,95502.51
2019-03-08T03:10:47.783Z,95501.69
2019-03-08T03:13:17.406Z,95500.88
2019-03-08T03:15:47.107Z,95505.41
2019-03-08T03:18:16.816Z,95513.31
2019-03-08T03:20:46.443Z,95501.17
2019-03-08T03:23:16.129Z,95512.50
2019-03-08T03:25:45.775Z,95503.03
2019-03-08T03:28:15.444Z,95511.88
2019-03-08T03:30:45.078Z,95511.06
2019-03-08T03:33:15.076Z,95519.62
2019-03-08T03:35:44.711Z,95518.52
2019-03-08T03:38:14.389Z,95517.77
2019-03-08T03:40:44.026Z,95514.27
2019-03-08T03:43:13.715Z,95520.23
2019-03-08T03:45:43.431Z,95519.09
2019-03-08T03:48:13.053Z,95520.77
2019-03-08T03:50:42.753Z,95521.48
2019-03-08T03:53:12.367Z,95522.82
2019-03-08T03:55:42.075Z,95524.45
2019-03-08T03:58:11.733Z,95524.98
2019-03-08T04:00:41.585Z,95528.70
2019-03-08T04:03:11.225Z,95515.83
2019-03-08T04:05:40.921Z,95521.19
2019-03-08T04:08:10.523Z,95528.47
2019-03-08T04:10:40.152Z,95530.36
2019-03-08T04:13:09.835Z,95535.30
2019-03-08T04:15:39.464Z,95528.89
2019-03-08T04:18:09.156Z,95528.80
2019-03-08T04:20:38.796Z,95527.45
2019-03-08T04:23:08.491Z,95534.97
2019-03-08T04:25:38.185Z,95536.02
2019-03-08T04:28:08.008Z,95535.06
2019-03-08T04:30:37.778Z,95531.38
2019-03-08T04:33:07.460Z,95530.75
2019-03-08T04:35:37.132Z,95526.61
2019-03-08T04:38:06.741Z,95524.48
2019-03-08T04:40:36.463Z,95523.97
2019-03-08T04:43:06.075Z,95525.83
2019-03-08T04:45:35.778Z,95527.16
2019-03-08T04:48:05.396Z,95515.12
2019-03-08T04:50:35.090Z,95522.92
2019-03-08T04:53:04.800Z,95517.98
2019-03-08T04:55:34.725Z,95514.30
2019-03-08T04:58:04.348Z,95507.38
2019-03-08T05:00:34.044Z,95510.58
2019-03-08T05:03:03.743Z,95505.52
2019-03-08T05:05:33.371Z,95504.11
2019-03-08T05:08:03.112Z,95504.80
2019-03-08T05:10:32.697Z,95511.30
2019-03-08T05:13:02.393Z,95506.86
2019-03-08T05:15:32.023Z,95512.20
2019-03-08T05:18:01.808Z,95511.63
2019-03-08T05:20:31.614Z,95505.13
2019-03-08T05:23:01.539Z,95502.84
2019-03-08T05:25:30.991Z,95498.82
2019-03-08T05:28:00.855Z,95498.23
2019-03-08T05:30:30.578Z,95502.54
2019-03-08T05:33:00.160Z,95495.66
2019-03-08T05:35:29.895Z,95498.66
2019-03-08T05:37:59.503Z,95506.98
2019-03-08T05:40:29.219Z,95511.91
2019-03-08T05:42:58.829Z,95524.26
2019-03-08T05:45:28.782Z,95527.78
2019-03-08T05:47:58.463Z,95535.39
2019-03-08T05:50:28.369Z,95526.25
2019-03-08T05:52:57.975Z,95530.62
2019-03-08T05:55:27.675Z,95515.83
2019-03-08T05:57:57.342Z,95514.30
2019-03-08T06:00:32.952Z,95511.84
2019-03-08T06:03:00.701Z,95516.06
2019-03-08T06:05:30.306Z,95523.38
2019-03-08T06:07:59.950Z,95519.58
2019-03-08T06:10:30.606Z,95517.49
2019-03-08T06:13:00.369Z,95520.92
2019-03-08T06:15:30.107Z,95527.61
2019-03-08T06:17:59.995Z,95538.49
2019-03-08T06:20:29.642Z,95554.72
2019-03-08T06:22:59.304Z,95540.98
2019-03-08T06:25:28.947Z,95542.19
2019-03-08T06:27:58.629Z,95548.28
2019-03-08T06:30:28.349Z,95547.45
2019-03-08T06:32:57.967Z,95544.50
2019-03-08T06:35:27.670Z,95550.64
2019-03-08T06:37:57.464Z,95553.03
2019-03-08T06:40:27.238Z,95540.18
2019-03-08T06:42:56.971Z,95542.45
2019-03-08T06:45:26.845Z,95542.45
2019-03-08T06:47:57.839Z,95538.42
2019-03-08T06:50:27.574Z,95539.67
2019-03-08T06:52:57.682Z,95538.55
2019-03-08T06:55:27.795Z,95540.00
2019-03-08T06:58:02.171Z,95540.62
2019-03-08T07:00:36.247Z,95542.67
2019-03-08T07:03:06.556Z,95549.14
2019-03-08T07:05:36.277Z,95553.78
2019-03-08T07:08:05.933Z,95556.13
2019-03-08T07:10:35.600Z,95550.80
2019-03-08T07:13:05.225Z,95545.69
2019-03-08T07:15:34.954Z,95543.83
2019-03-08T07:18:12.248Z,95543.30
2019-03-08T07:21:00.729Z,95549.28
2019-03-08T07:23:43.818Z,95544.73
2019-03-08T07:26:38.442Z,95551.31
2019-03-08T07:29:19.812Z,95556.48
2019-03-08T07:32:05.583Z,95551.92
2019-03-08T07:35:02.760Z,95550.07
2019-03-08T07:38:03.603Z,95550.36
2019-03-08T07:41:01.071Z,95546.84
2019-03-08T07:44:04.611Z,95546.75
2019-03-08T07:47:02.004Z,95544.79
2019-03-08T07:49:48.038Z,95542.83
2019-03-08T07:52:32.819Z,95542.83
2019-03-08T07:55:36.457Z,95535.81
2019-03-08T07:58:23.728Z,95536.53
2019-03-08T08:01:01.399Z,95540.84
2019-03-08T08:03:36.619Z,95533.95
2019-03-08T08:06:15.428Z,95525.80
2019-03-08T08:09:06.909Z,95524.84
2019-03-08T08:12:01.488Z,95519.87
2019-03-08T08:14:48.784Z,95513.57
2019-03-08T08:17:43.297Z,95511.08
2019-03-08T08:20:38.234Z,95509.97
2019-03-08T08:23:34.233Z,95508.58
2019-03-08T08:26:31.920Z,95507.91
2019-03-08T08:29:17.775Z,95507.58
2019-03-08T08:32:06.836Z,95506.66
2019-03-08T08:35:04.636Z,95508.91
2019-03-08T08:37:44.777Z,95513.08
2019-03-08T08:40:23.395Z,95513.50
2019-03-08T08:43:12.956Z,95512.45
2019-03-08T08:46:01.386Z,95509.77
2019-03-08T08:49:00.208Z,95511.20
2019-03-08T08:51:54.446Z,95508.32
2019-03-08T08:55:06.646Z,95509.66
2019-03-08T08:58:01.296Z,95501.91
2019-03-08T09:00:46.776Z,95497.37
2019-03-08T09:03:50.536Z,95495.73
2019-03-08T09:06:37.804Z,95500.69
2019-03-08T09:09:27.622Z,95492.48
2019-03-08T09:12:14.499Z,95497.59
2019-03-08T09:15:02.941Z,95491.38
2019-03-08T09:17:47.432Z,95490.71
2019-03-08T09:20:34.426Z,95487.91
2019-03-08T09:23:12.338Z,95488.09
2019-03-08T09:25:54.225Z,95495.17
2019-03-08T09:28:37.133Z,95494.31
2019-03-08T09:31:37.930Z,95497.09
2019-03-08T09:34:18.077Z,95491.63
2019-03-08T09:37:06.576Z,95492.64
2019-03-08T09:39:57.934Z,95487.28
2019-03-08T09:42:44.787Z,95488.04
2019-03-08T09:45:39.175Z,95485.36
2019-03-08T09:48:36.775Z,95488.86
2019-03-08T09:51:25.219Z,95490.58
2019-03-08T09:54:18.228Z,95488.63
2019-03-08T09:57:10.622Z,95483.11
2019-03-08T09:59:57.586Z,95484.36
2019-03-08T10:02:40.662Z,95472.16
2019-03-08T10:05:27.373Z,95471.96
2019-03-08T10:08:18.647Z,95470.30
2019-03-08T10:11:02.500Z,95470.62
2019-03-08T10:13:51.074Z,95460.92
2019-03-08T10:16:27.975Z,95456.99
2019-03-08T10:19:19.168Z,95456.41
2019-03-08T10:21:58.458Z,95457.61
2019-03-08T10:24:34.686Z,95451.63
2019-03-08T10:27:37.610Z,95453.30
2019-03-08T10:30:31.969Z,95458.42
2019-03-08T10:33:22.573Z,95452.77
2019-03-08T10:36:08.865Z,95453.30
2019-03-08T10:38:50.154Z,95451.00
2019-03-08T10:41:35.316Z,95449.42
2019-03-08T10:44:35.899Z,95443.16
2019-03-08T10:47:18.464Z,95439.46
2019-03-08T10:50:15.909Z,95431.33
2019-03-08T10:52:50.795Z,95430.61
2019-03-08T10:55:48.418Z,95428.83
2019-03-08T10:58:35.393Z,95427.17
2019-03-08T11:01:42.039Z,95423.47
2019-03-08T11:04:30.452Z,95413.48
2019-03-08T11:07:16.144Z,95413.48
2019-03-08T11:10:02.344Z,95413.19
2019-03-08T11:12:53.511Z,95406.89
2019-03-08T11:15:41.946Z,95399.47
2019-03-08T11:18:33.635Z,95393.09
2019-03-08T11:21:25.143Z,95393.91
2019-03-08T11:24:19.496Z,95371.70
2019-03-08T11:27:25.716Z,95381.17
2019-03-08T11:30:14.150Z,95372.55
2019-03-08T11:33:20.709Z,95376.57
2019-03-08T11:36:09.359Z,95362.41
2019-03-08T11:38:52.945Z,95356.84
2019-03-08T11:41:29.602Z,95353.84
2019-03-08T11:44:24.257Z,95348.57
2019-03-08T11:47:12.732Z,95347.23
2019-03-08T11:49:50.195Z,95349.63
2019-03-08T11:52:34.908Z,95347.23
2019-03-08T11:55:23.581Z,95339.19
2019-03-08T11:58:14.756Z,95333.10
2019-03-08T12:01:03.218Z,95329.52
2019-03-08T12:03:51.666Z,95328.27
2019-03-08T12:06:55.116Z,95328.47
2019-03-08T12:09:46.625Z,95319.94
2019-03-08T12:12:33.783Z,95320.43
2019-03-08T12:15:28.412Z,95315.07
2019-03-08T12:18:16.860Z,95308.38
2019-03-08T12:21:08.320Z,95312.70
2019-03-08T12:23:59.886Z,95305.25
2019-03-08T12:26:43.142Z,95299.52
2019-03-08T12:29:43.941Z,95300.65
2019-03-08T12:32:31.204Z,95295.58
2019-03-08T12:35:25.874Z,95295.29
2019-03-08T12:38:14.340Z,95298.98
2019-03-08T12:41:01.543Z,95291.11
2019-03-08T12:43:50.099Z,95288.92
2019-03-08T12:46:29.153Z,95280.92
2019-03-08T12:49:05.235Z,95283.69
2019-03-08T12:51:46.488Z,95281.61
2019-03-08T12:54:40.980Z,95287.21
2019-03-08T12:57:29.424Z,95277.88
2019-03-08T13:00:09.783Z,95276.86
2019-03-08T13:02:56.815Z,95274.98
2019-03-08T13:05:43.859Z,95271.78
2019-03-08T13:08:35.499Z,95274.78
2019-03-08T13:11:05.240Z,95261.50
2019-03-08T13:13:36.481Z,95262.73
2019-03-08T13:16:06.309Z,95260.92
2019-03-08T13:18:35.928Z,95263.20
2019-03-08T13:21:05.626Z,95262.23
2019-03-08T13:23:35.237Z,95257.48
2019-03-08T13:26:04.954Z,95259.71
2019-03-08T13:28:34.556Z,95258.69
2019-03-08T13:31:04.472Z,95259.19
2019-03-08T13:33:34.083Z,95255.84
2019-03-08T13:36:03.786Z,95255.86
2019-03-08T13:38:33.483Z,95250.05
2019-03-08T13:41:03.200Z,95238.55
2019-03-08T13:43:32.920Z,95237.22
2019-03-08T13:46:02.546Z,95238.80
2019-03-08T13:48:32.134Z,95233.19
2019-03-08T13:51:01.754Z,95223.89
2019-03-08T13:53:31.451Z,95224.13
2019-03-08T13:56:01.231Z,95220.31
2019-03-08T13:58:30.968Z,95223.08
2019-03-08T14:01:00.610Z,95217.56
2019-03-08T14:03:30.221Z,95216.38
2019-03-08T14:05:59.907Z,95222.55
2019-03-08T14:08:29.703Z,95224.41
2019-03-08T14:10:59.423Z,95230.06
2019-03-08T14:13:29.058Z,95230.23
2019-03-08T14:15:58.742Z,95225.02
2019-03-08T14:18:28.172Z,95228.20
2019-03-08T14:20:57.866Z,95228.57
2019-03-08T14:23:27.492Z,95223.81
2019-03-08T14:25:57.302Z,95223.53
2019-03-08T14:28:27.156Z,95216.75
2019-03-08T14:31:22.702Z,95215.48
2019-03-08T14:33:52.672Z,95208.26
2019-03-08T14:36:22.251Z,95217.93
2019-03-08T14:38:51.944Z,95211.07
2019-03-08T14:41:30.697Z,95214.44
2019-03-08T14:44:05.425Z,95219.66
2019-03-08T14:46:45.489Z,95209.52
2019-03-08T14:49:15.185Z,95212.04
2019-03-08T14:51:48.312Z,95214.30
2019-03-08T14:54:17.240Z,95223.98
2019-03-08T14:56:46.772Z,95204.53
2019-03-08T14:59:16.880Z,95202.50
2019-03-08T15:01:46.611Z,95208.02
2019-03-08T15:04:16.296Z,95210.26
2019-03-08T15:06:46.102Z,95206.03
2019-03-08T15:09:15.818Z,95211.31
2019-03-08T15:11:45.633Z,95209.97
2019-03-08T15:14:15.403Z,95211.84
2019-03-08T15:16:45.060Z,95233.80
2019-03-08T15:19:14.705Z,95225.52
2019-03-08T15:21:48.421Z,95216.67
2019-03-08T15:24:15.752Z,95211.02
2019-03-08T15:26:45.442Z,95224.41
2019-03-08T15:29:15.068Z,95229.41
2019-03-08T15:31:44.804Z,95235.35
2019-03-08T15:34:21.026Z,95235.42
2019-03-08T15:36:45.916Z,95230.07
2019-03-08T15:39:15.732Z,95231.33
2019-03-08T15:41:45.537Z,95233.56
2019-03-08T15:44:15.328Z,95235.35
2019-03-08T15:46:45.121Z,95245.78
2019-03-08T15:49:14.780Z,95243.02
2019-03-08T15:51:44.405Z,95246.73
2019-03-08T15:54:14.114Z,95248.38
2019-03-08T15:56:43.732Z,95247.25
2019-03-08T15:59:13.423Z,95253.42
2019-03-08T16:01:43.054Z,95266.83
2019-03-08T16:04:13.068Z,95273.03
2019-03-08T16:06:43.803Z,95279.65
2019-03-08T16:09:14.210Z,95276.97
2019-03-08T16:11:45.989Z,95283.14
2019-03-08T16:14:15.275Z,95285.38
2019-03-08T16:16:44.972Z,95283.14
2019-03-08T16:19:14.724Z,95286.11
2019-03-08T16:21:46.730Z,95286.80
2019-03-08T16:24:15.557Z,95293.86
2019-03-08T16:26:45.291Z,95262.27
2019-03-08T16:29:14.862Z,95287.98
2019-03-08T16:31:50.277Z,95297.65
2019-03-08T16:34:20.125Z,95294.23
2019-03-08T16:37:07.999Z,95296.39
2019-03-08T16:40:02.216Z,95285.98
2019-03-08T16:42:53.449Z,95291.28
2019-03-08T16:45:36.650Z,95290.02
2019-03-08T16:48:25.157Z,95295.14
2019-03-08T16:51:22.968Z,95301.43
2019-03-08T16:53:58.167Z,95301.56
2019-03-08T16:56:50.296Z,95306.87
2019-03-08T16:59:25.607Z,95307.06
2019-03-08T17:02:14.089Z,95304.14
2019-03-08T17:05:11.574Z,95310.25
2019-03-08T17:08:02.879Z,95310.69
2019-03-08T17:10:49.908Z,95314.23
2019-03-08T17:13:44.232Z,95319.63
2019-03-08T17:16:37.992Z,95316.71
2019-03-08T17:19:17.819Z,95328.00
2019-03-08T17:22:05.293Z,95328.36
2019-03-08T17:25:12.021Z,95329.88
2019-03-08T17:28:03.473Z,95338.16
2019-03-08T17:30:58.321Z,95346.50
2019-03-08T17:33:38.597Z,95353.00
2019-03-08T17:36:29.874Z,95354.21
2019-03-08T17:39:07.139Z,95353.31
2019-03-08T17:42:01.340Z,95347.80
2019-03-08T17:44:50.247Z,95344.37
2019-03-08T17:47:28.002Z,95353.48
2019-03-08T17:50:16.028Z,95357.18
2019-03-08T17:53:01.783Z,95359.81
2019-03-08T17:55:53.265Z,95365.19
2019-03-08T17:58:50.837Z,95360.88
2019-03-08T18:01:45.512Z,95366.16
2019-03-08T18:04:25.412Z,95365.99
2019-03-08T18:07:13.758Z,95373.31
2019-03-08T18:10:01.820Z,95368.27
2019-03-08T18:12:53.771Z,95373.75
2019-03-08T18:15:53.337Z,95385.91
2019-03-08T18:18:40.289Z,95389.13
2019-03-08T18:21:34.348Z,95390.75
2019-03-08T18:24:23.809Z,95392.09
2019-03-08T18:27:05.004Z,95395.95
2019-03-08T18:29:53.552Z,95400.94
2019-03-08T18:32:35.252Z,95399.07
2019-03-08T18:35:22.737Z,95410.10
2019-03-08T18:38:11.580Z,95416.52
2019-03-08T18:41:00.594Z,95419.11
2019-03-08T18:44:04.076Z,95412.28
2019-03-08T18:47:02.169Z,95409.73
2019-03-08T18:49:53.670Z,95418.59
2019-03-08T18:52:42.449Z,95421.59
2019-03-08T18:55:35.149Z,95425.91
2019-03-08T18:58:27.021Z,95430.91
2019-03-08T19:01:17.419Z,95435.00
2019-03-08T19:04:15.052Z,95431.55
2019-03-08T19:07:14.318Z,95433.94
2019-03-08T19:09:52.227Z,95440.81
2019-03-08T19:12:59.025Z,95440.20
2019-03-08T19:15:46.388Z,95439.91
2019-03-08T19:18:34.844Z,95447.03
2019-03-08T19:21:25.152Z,95449.71
2019-03-08T19:24:20.589Z,95455.75
2019-03-08T19:27:09.000Z,95459.86
2019-03-08T19:30:09.576Z,95457.38
2019-03-08T19:32:54.889Z,95451.20
2019-03-08T19:35:42.356Z,95464.61
2019-03-08T19:38:40.051Z,95466.97
2019-03-08T19:41:21.926Z,95470.38
2019-03-08T19:44:08.468Z,95472.16
2019-03-08T19:47:05.815Z,95471.38
2019-03-08T19:49:57.026Z,95468.70
2019-03-08T19:52:42.143Z,95475.11
2019-03-08T19:55:22.319Z,95476.07
2019-03-08T19:58:10.790Z,95477.14
2019-03-08T20:01:01.248Z,95475.98
2019-03-08T20:03:52.489Z,95482.65
2019-03-08T20:06:39.891Z,95480.61
2019-03-08T20:09:26.992Z,95482.29
2019-03-08T20:12:24.687Z,95482.00
2019-03-08T20:15:21.246Z,95479.09
2019-03-08T20:18:04.470Z,95476.31
2019-03-08T20:20:55.774Z,95488.70
2019-03-08T20:23:44.339Z,95490.15
2019-03-08T20:26:32.790Z,95486.13
2019-03-08T20:29:36.285Z,95495.51
2019-03-08T20:32:30.890Z,95483.36
2019-03-08T20:35:22.083Z,95488.28
2019-03-08T20:38:10.541Z,95491.38
2019-03-08T20:40:57.880Z,95492.81
2019-03-08T20:43:55.567Z,95493.38
2019-03-08T20:46:53.102Z,95501.96
2019-03-08T20:49:22.753Z,95495.17
2019-03-08T20:51:52.492Z,95494.78
2019-03-08T20:54:22.356Z,95496.03
2019-03-08T20:56:52.340Z,95498.58
2019-03-08T20:59:21.954Z,95511.39
2019-03-08T21:01:51.648Z,95501.39
2019-03-08T21:04:21.274Z,95494.60
2019-03-08T21:06:51.065Z,95500.28
2019-03-08T21:09:20.956Z,95505.64
2019-03-08T21:11:50.692Z,95493.64
2019-03-08T21:14:20.326Z,95494.41
2019-03-08T21:16:50.025Z,95490.38
2019-03-08T21:19:19.721Z,95493.27
2019-03-08T21:21:49.739Z,95500.87
2019-03-08T21:24:19.372Z,95506.05
2019-03-08T21:26:49.066Z,95508.86
2019-03-08T21:29:18.774Z,95503.69
2019-03-08T21:31:48.401Z,95505.75
2019-03-08T21:34:18.087Z,95498.96
2019-03-08T21:36:47.728Z,95501.02
2019-03-08T21:39:17.412Z,95504.23
2019-03-08T21:41:47.043Z,95499.77
2019-03-08T21:44:16.732Z,95506.48
2019-03-08T21:46:46.451Z,95512.68
2019-03-08T21:49:16.151Z,95504.84
2019-03-08T21:51:45.872Z,95504.75
2019-03-08T21:54:15.485Z,95502.98
2019-03-08T21:56:45.188Z,95507.72
2019-03-08T21:59:14.823Z,95509.06
2019-03-08T22:01:44.449Z,95512.27
2019-03-08T22:04:20.388Z,95514.95
2019-03-08T22:06:49.959Z,95513.61
2019-03-08T22:09:25.952Z,95514.22
2019-03-08T22:11:55.687Z,95504.98
2019-03-08T22:14:25.340Z,95513.02
2019-03-08T22:16:55.054Z,95518.96
2019-03-08T22:19:24.879Z,95513.17
2019-03-08T22:21:54.576Z,95509.81
2019-03-08T22:24:24.300Z,95518.05
2019-03-08T22:26:53.947Z,95522.69
2019-03-08T22:29:23.707Z,95515.90
2019-03-08T22:31:53.348Z,95520.02
2019-03-08T22:34:23.029Z,95523.60
2019-03-08T22:36:52.662Z,95523.73
2019-03-08T22:39:22.349Z,95528.87
2019-03-08T22:41:51.964Z,95533.41
2019-03-08T22:44:21.580Z,95535.95
2019-03-08T22:46:51.279Z,95532.36
2019-03-08T22:49:20.888Z,95536.61
2019-03-08T22:51:50.606Z,95536.70
2019-03-08T22:54:20.214Z,95536.48
2019-03-08T22:56:49.926Z,95544.84
2019-03-08T22:59:19.628Z,95539.16
2019-03-08T23:01:51.726Z,95547.72
2019-03-08T23:04:21.425Z,95559.77
2019-03-08T23:06:51.019Z,95564.09
2019-03-08T23:09:21.004Z,95562.75
2019-03-08T23:11:50.747Z,95560.92
2019-03-08T23:14:20.456Z,95559.48
2019-03-08T23:16:50.165Z,95558.44
2019-03-08T23:19:19.820Z,95560.06
2019-03-08T23:21:49.479Z,95559.48
2019-03-08T23:24:19.100Z,95569.88
2019-03-08T23:27:07.569Z,95571.83
2019-03-08T23:30:05.488Z,95574.31
2019-03-08T23:32:47.243Z,95574.71
2019-03-08T23:35:16.965Z,95576.58
2019-03-08T23:37:46.628Z,95573.37
2019-03-08T23:40:16.451Z,95571.55
2019-03-08T23:42:46.146Z,95576.14
2019-03-08T23:45:15.773Z,95569.77
2019-03-08T23:47:45.477Z,95575.85
2019-03-08T23:50:15.099Z,95578.34
2019-03-08T23:52:45.000Z,95578.63
2019-03-08T23:55:14.611Z,95574.81
2019-03-08T23:57:44.324Z,95573.17
